createdAt,value
2023-02-13T00:00:11.091Z,24.50
2023-02-13T00:01:11.057Z,24.40
2023-02-13T00:02:11.193Z,26.80
2023-02-13T00:03:11.036Z,26.90
2023-02-13T00:04:11.006Z,28.20
2023-02-13T00:05:10.984Z,27.00
2023-02-13T00:06:10.997Z,24.80
2023-02-13T00:07:10.973Z,27.00
2023-02-13T00:08:10.970Z,25.80
2023-02-13T00:09:10.956Z,30.10
2023-02-13T00:10:10.962Z,30.50
2023-02-13T00:11:10.929Z,26.40
2023-02-13T00:12:10.902Z,28.80
2023-02-13T00:13:10.873Z,26.20
2023-02-13T00:14:10.926Z,28.00
2023-02-13T00:15:10.878Z,29.20
2023-02-13T00:16:10.914Z,27.50
2023-02-13T00:17:10.805Z,27.80
2023-02-13T00:18:10.817Z,27.40
2023-02-13T00:19:10.807Z,27.10
2023-02-13T00:20:10.801Z,27.90
2023-02-13T00:21:10.773Z,26.90
2023-02-13T00:22:10.784Z,31.40
2023-02-13T00:23:10.729Z,27.20
2023-02-13T00:24:10.758Z,26.90
2023-02-13T00:25:10.723Z,28.00
2023-02-13T00:26:10.733Z,26.90
2023-02-13T00:27:10.687Z,27.80
2023-02-13T00:28:10.747Z,25.80
2023-02-13T00:29:10.703Z,30.40
2023-02-13T00:30:10.669Z,27.20
2023-02-13T00:31:10.796Z,31.80
2023-02-13T00:32:10.788Z,28.40
2023-02-13T00:33:10.606Z,27.40
2023-02-13T00:34:10.648Z,31.50
2023-02-13T00:35:10.583Z,28.70
2023-02-13T00:36:10.614Z,28.90
2023-02-13T00:37:10.550Z,32.50
2023-02-13T00:38:10.552Z,29.10
2023-02-13T00:39:10.532Z,28.80
2023-02-13T00:40:10.546Z,31.00
2023-02-13T00:41:10.504Z,30.20
2023-02-13T00:42:10.516Z,33.60
2023-02-13T00:43:10.460Z,30.30
2023-02-13T00:44:10.508Z,32.10
2023-02-13T00:45:10.468Z,31.90
2023-02-13T00:46:10.482Z,30.50
2023-02-13T00:47:10.430Z,32.30
2023-02-13T00:48:10.452Z,31.30
2023-02-13T00:49:10.387Z,30.90
2023-02-13T00:50:10.397Z,33.10
2023-02-13T00:51:10.389Z,34.50
2023-02-13T00:52:10.466Z,33.50
2023-02-13T00:53:10.333Z,33.40
2023-02-13T00:54:10.342Z,33.00
2023-02-13T00:55:10.324Z,31.00
2023-02-13T00:56:10.333Z,32.60
2023-02-13T00:57:10.285Z,32.10
2023-02-13T00:58:10.371Z,33.90
2023-02-13T00:59:10.250Z,35.70
2023-02-13T01:00:10.279Z,33.70
2023-02-13T01:01:10.376Z,32.60
2023-02-13T01:02:10.252Z,37.40
2023-02-13T01:03:10.230Z,31.80
2023-02-13T01:04:10.208Z,31.40
2023-02-13T01:05:10.256Z,35.80
2023-02-13T01:06:10.234Z,35.00
2023-02-13T01:07:10.148Z,32.30
2023-02-13T01:08:10.162Z,38.00
2023-02-13T01:09:10.162Z,37.20
2023-02-13T01:10:10.140Z,35.30
2023-02-13T01:11:10.094Z,34.40
2023-02-13T01:12:10.148Z,33.50
2023-02-13T01:13:10.085Z,33.70
2023-02-13T01:14:10.086Z,32.30
2023-02-13T01:15:10.086Z,33.30
2023-02-13T01:16:10.106Z,32.40
2023-02-13T01:17:10.020Z,32.80
2023-02-13T01:18:10.030Z,33.90
2023-02-13T01:19:10.012Z,34.30
2023-02-13T01:20:10.040Z,35.00
2023-02-13T01:21:09.978Z,33.80
2023-02-13T01:22:09.976Z,35.20
2023-02-13T01:23:10.007Z,35.70
2023-02-13T01:24:09.959Z,33.60
2023-02-13T01:25:09.926Z,36.90
2023-02-13T01:26:09.929Z,35.30
2023-02-13T01:27:09.893Z,34.60
2023-02-13T01:28:09.978Z,40.00
2023-02-13T01:29:09.856Z,34.50
2023-02-13T01:30:09.915Z,32.60
2023-02-13T01:31:09.949Z,38.00
2023-02-13T01:32:09.900Z,34.70
2023-02-13T01:33:09.821Z,35.40
2023-02-13T01:34:09.846Z,35.20
2023-02-13T01:35:09.779Z,37.20
2023-02-13T01:36:09.811Z,39.90
2023-02-13T01:37:09.780Z,39.40
2023-02-13T01:38:09.795Z,37.20
2023-02-13T01:39:09.744Z,39.10
2023-02-13T01:40:09.801Z,39.60
2023-02-13T01:41:09.713Z,40.30
2023-02-13T01:42:09.709Z,39.40
2023-02-13T01:43:09.685Z,40.30
2023-02-13T01:44:09.706Z,39.70
2023-02-13T01:45:09.707Z,38.90
2023-02-13T01:46:09.695Z,38.90
2023-02-13T01:47:09.636Z,39.90
2023-02-13T01:48:09.646Z,40.80
2023-02-13T01:49:09.612Z,40.10
2023-02-13T01:50:09.627Z,37.60
2023-02-13T01:51:09.569Z,41.50
2023-02-13T01:52:09.593Z,36.40
2023-02-13T01:53:09.542Z,40.90
2023-02-13T01:54:09.579Z,39.80
2023-02-13T01:55:09.536Z,40.80
2023-02-13T01:56:09.517Z,40.80
2023-02-13T01:57:09.486Z,38.30
2023-02-13T01:58:09.564Z,41.00
2023-02-13T01:59:09.496Z,41.70
2023-02-13T02:00:09.535Z,40.70
2023-02-13T02:01:09.466Z,44.00
2023-02-13T02:02:09.499Z,43.30
2023-02-13T02:03:09.408Z,42.60
2023-02-13T02:04:09.439Z,40.30
2023-02-13T02:05:09.403Z,41.80
2023-02-13T02:06:09.439Z,41.30
2023-02-13T02:07:09.370Z,42.10
2023-02-13T02:08:09.373Z,43.80
2023-02-13T02:09:09.337Z,43.80
2023-02-13T02:10:09.349Z,40.90
2023-02-13T02:11:09.339Z,41.70
2023-02-13T02:12:09.328Z,43.20
2023-02-13T02:13:09.298Z,45.20
2023-02-13T02:14:09.306Z,44.10
2023-02-13T02:15:09.293Z,43.20
2023-02-13T02:16:09.301Z,44.20
2023-02-13T02:17:09.233Z,46.40
2023-02-13T02:18:09.272Z,46.40
2023-02-13T02:19:09.234Z,46.80
2023-02-13T02:20:09.206Z,46.90
2023-02-13T02:21:09.190Z,45.30
2023-02-13T02:22:09.191Z,44.60
2023-02-13T02:23:09.183Z,47.70
2023-02-13T02:24:09.181Z,46.60
2023-02-13T02:25:09.144Z,45.90
2023-02-13T02:26:09.155Z,44.50
2023-02-13T02:27:09.108Z,42.80
2023-02-13T02:28:09.153Z,45.00
2023-02-13T02:29:09.088Z,45.00
2023-02-13T02:30:09.117Z,47.20
2023-02-13T02:31:09.207Z,46.90
2023-02-13T02:32:09.049Z,48.60
2023-02-13T02:33:09.077Z,46.60
2023-02-13T02:34:09.016Z,44.00
2023-02-13T02:35:09.059Z,49.70
2023-02-13T02:36:09.010Z,48.80
2023-02-13T02:37:09.007Z,48.40
2023-02-13T02:38:08.972Z,47.90
2023-02-13T02:39:08.975Z,49.90
2023-02-13T02:40:08.974Z,50.90
2023-02-13T02:41:08.945Z,48.50
2023-02-13T02:42:08.910Z,46.90
2023-02-13T02:43:08.936Z,47.00
2023-02-13T02:44:08.893Z,51.00
2023-02-13T02:45:08.952Z,52.20
2023-02-13T02:46:08.862Z,50.60
2023-02-13T02:47:08.884Z,51.70
2023-02-13T02:48:08.841Z,46.60
2023-02-13T02:49:08.848Z,49.90
2023-02-13T02:50:08.832Z,50.50
2023-02-13T02:51:08.842Z,50.30
2023-02-13T02:52:08.810Z,53.50
2023-02-13T02:53:08.764Z,53.30
2023-02-13T02:54:08.777Z,48.60
2023-02-13T02:55:08.758Z,50.40
2023-02-13T02:56:08.745Z,52.40
2023-02-13T02:57:08.706Z,49.80
2023-02-13T02:58:08.730Z,52.00
2023-02-13T02:59:08.731Z,53.20
2023-02-13T03:00:08.723Z,54.20
2023-02-13T03:01:08.770Z,52.00
2023-02-13T03:02:08.693Z,52.10
2023-02-13T03:03:08.634Z,51.40
2023-02-13T03:04:08.683Z,51.10
2023-02-13T03:05:08.593Z,51.80
2023-02-13T03:06:08.624Z,52.70
2023-02-13T03:07:08.609Z,50.10
2023-02-13T03:08:08.592Z,50.00
2023-02-13T03:09:08.545Z,53.00
2023-02-13T03:10:08.564Z,53.70
2023-02-13T03:11:08.552Z,54.00
2023-02-13T03:12:08.568Z,50.80
2023-02-13T03:13:08.490Z,52.30
2023-02-13T03:14:08.524Z,53.40
2023-02-13T03:15:08.499Z,54.70
2023-02-13T03:16:08.544Z,54.40
2023-02-13T03:17:08.451Z,51.10
2023-02-13T03:18:08.474Z,53.00
2023-02-13T03:19:08.424Z,55.90
2023-02-13T03:20:08.458Z,53.00
2023-02-13T03:21:08.413Z,53.90
2023-02-13T03:22:08.401Z,54.40
2023-02-13T03:23:08.367Z,54.00
2023-02-13T03:24:08.374Z,53.70
2023-02-13T03:25:08.401Z,54.10
2023-02-13T03:26:08.347Z,55.40
2023-02-13T03:27:08.325Z,54.90
2023-02-13T03:28:08.335Z,56.80
2023-02-13T03:29:08.296Z,50.40
2023-02-13T03:30:08.328Z,53.40
2023-02-13T03:31:08.362Z,54.60
2023-02-13T03:32:08.280Z,54.20
2023-02-13T03:33:08.248Z,56.00
2023-02-13T03:34:08.282Z,56.70
2023-02-13T03:35:08.206Z,56.30
2023-02-13T03:36:08.269Z,56.40
2023-02-13T03:37:08.184Z,54.20
2023-02-13T03:38:08.211Z,55.50
2023-02-13T03:39:08.169Z,54.00
2023-02-13T03:40:08.183Z,57.50
2023-02-13T03:41:08.149Z,55.00
2023-02-13T03:42:08.158Z,53.90
2023-02-13T03:43:08.110Z,52.60
2023-02-13T03:44:08.118Z,56.40
2023-02-13T03:45:08.109Z,59.40
2023-02-13T03:46:08.125Z,61.20
2023-02-13T03:47:08.059Z,60.70
2023-02-13T03:48:08.095Z,59.30
2023-02-13T03:49:08.033Z,60.20
2023-02-13T03:50:08.051Z,60.40
2023-02-13T03:51:08.030Z,62.10
2023-02-13T03:52:08.032Z,64.30
2023-02-13T03:53:07.998Z,65.80
2023-02-13T03:54:08.017Z,61.20
2023-02-13T03:55:07.947Z,64.30
2023-02-13T03:56:07.971Z,63.80
2023-02-13T03:57:07.918Z,62.00
2023-02-13T03:58:07.957Z,63.30
2023-02-13T03:59:07.895Z,68.20
2023-02-13T04:00:07.909Z,69.40
2023-02-13T04:01:07.961Z,70.30
2023-02-13T04:02:07.918Z,73.90
2023-02-13T04:03:07.866Z,70.70
2023-02-13T04:04:07.856Z,75.80
2023-02-13T04:05:07.822Z,70.90
2023-02-13T04:06:07.853Z,71.90
2023-02-13T04:07:07.802Z,74.30
2023-02-13T04:08:07.886Z,74.20
2023-02-13T04:09:07.760Z,69.70
2023-02-13T04:10:07.804Z,72.20
2023-02-13T04:11:07.785Z,70.70
2023-02-13T04:12:07.747Z,74.60
2023-02-13T04:13:07.734Z,73.10
2023-02-13T04:14:07.732Z,75.30
2023-02-13T04:15:07.704Z,76.00
2023-02-13T04:16:07.739Z,79.00
2023-02-13T04:17:07.692Z,81.10
2023-02-13T04:18:09.619Z,71.20
2023-02-13T04:19:07.636Z,84.20
2023-02-13T04:20:07.653Z,79.10
2023-02-13T04:21:07.658Z,78.00
2023-02-13T04:22:07.642Z,76.60
2023-02-13T04:23:07.588Z,79.60
2023-02-13T04:24:07.587Z,94.00
2023-02-13T04:25:07.561Z,105.60
2023-02-13T04:26:07.592Z,92.30
2023-02-13T04:27:07.556Z,76.20
2023-02-13T04:28:07.545Z,76.50
2023-02-13T04:29:07.499Z,73.30
2023-02-13T04:30:07.526Z,79.90
2023-02-13T04:31:07.587Z,73.50
2023-02-13T04:32:07.517Z,82.80
2023-02-13T04:33:07.449Z,78.50
2023-02-13T04:34:07.493Z,78.60
2023-02-13T04:35:07.426Z,79.70
2023-02-13T04:36:07.432Z,79.70
2023-02-13T04:37:07.421Z,76.80
2023-02-13T04:38:07.418Z,81.40
2023-02-13T04:39:07.389Z,77.20
2023-02-13T04:40:07.376Z,78.40
2023-02-13T04:41:07.347Z,78.90
2023-02-13T04:42:07.387Z,74.00
2023-02-13T04:43:07.353Z,77.70
2023-02-13T04:44:07.331Z,76.40
2023-02-13T04:45:07.303Z,80.80
2023-02-13T04:46:07.356Z,80.80
2023-02-13T04:47:07.293Z,81.30
2023-02-13T04:48:07.309Z,78.50
2023-02-13T04:49:07.278Z,76.90
2023-02-13T04:50:07.269Z,81.20
2023-02-13T04:51:07.208Z,74.30
2023-02-13T04:52:07.263Z,81.00
2023-02-13T04:53:07.218Z,73.60
2023-02-13T04:54:07.186Z,74.80
2023-02-13T04:55:07.169Z,78.30
2023-02-13T04:56:07.184Z,77.40
2023-02-13T04:57:07.161Z,79.60
2023-02-13T04:58:07.166Z,73.80
2023-02-13T04:59:07.119Z,81.90
2023-02-13T05:00:07.122Z,81.30
2023-02-13T05:01:07.122Z,74.10
2023-02-13T05:02:07.106Z,78.90
2023-02-13T05:03:07.076Z,80.20
2023-02-13T05:04:07.130Z,76.60
2023-02-13T05:05:07.061Z,75.90
2023-02-13T05:06:07.056Z,78.90
2023-02-13T05:07:06.996Z,79.00
2023-02-13T05:08:07.032Z,83.30
2023-02-13T05:09:06.977Z,78.60
2023-02-13T05:10:07.002Z,85.10
2023-02-13T05:11:06.951Z,82.90
2023-02-13T05:12:06.965Z,82.40
2023-02-13T05:13:06.943Z,82.60
2023-02-13T05:14:06.943Z,86.10
2023-02-13T05:15:06.926Z,78.10
2023-02-13T05:16:07.030Z,82.80
2023-02-13T05:17:06.896Z,81.10
2023-02-13T05:18:06.897Z,79.10
2023-02-13T05:19:06.848Z,80.90
2023-02-13T05:20:06.882Z,85.90
2023-02-13T05:21:06.844Z,77.20
2023-02-13T05:22:06.878Z,79.60
2023-02-13T05:23:06.807Z,80.10
2023-02-13T05:24:06.827Z,80.00
2023-02-13T05:25:06.786Z,83.30
2023-02-13T05:26:06.787Z,85.40
2023-02-13T05:27:06.748Z,85.40
2023-02-13T05:28:06.846Z,83.50
2023-02-13T05:29:06.709Z,83.70
2023-02-13T05:30:06.732Z,80.70
2023-02-13T05:31:06.836Z,80.90
2023-02-13T05:32:06.792Z,84.60
2023-02-13T05:33:06.689Z,82.20
2023-02-13T05:34:06.663Z,81.50
2023-02-13T05:35:06.666Z,74.50
2023-02-13T05:36:06.657Z,71.70
2023-02-13T05:37:06.659Z,70.20
2023-02-13T05:38:06.684Z,78.20
2023-02-13T05:39:06.591Z,77.40
2023-02-13T05:40:06.617Z,88.20
2023-02-13T05:41:06.572Z,84.60
2023-02-13T05:42:06.609Z,86.50
2023-02-13T05:43:06.534Z,85.50
2023-02-13T05:44:06.553Z,93.70
2023-02-13T05:45:06.499Z,82.30
2023-02-13T05:46:06.613Z,86.30
2023-02-13T05:47:06.528Z,83.20
2023-02-13T05:48:06.529Z,84.20
2023-02-13T05:49:06.464Z,86.20
2023-02-13T05:50:06.488Z,87.00
2023-02-13T05:51:06.469Z,83.00
2023-02-13T05:52:06.438Z,83.50
2023-02-13T05:53:06.430Z,82.80
2023-02-13T05:54:06.407Z,86.10
2023-02-13T05:55:06.385Z,86.30
2023-02-13T05:56:06.436Z,86.30
2023-02-13T05:57:06.400Z,86.60
2023-02-13T05:58:06.374Z,85.20
2023-02-13T05:59:06.360Z,78.30
2023-02-13T06:00:06.358Z,89.10
2023-02-13T06:01:06.288Z,85.10
2023-02-13T06:02:06.372Z,84.40
2023-02-13T06:03:06.270Z,84.80
2023-02-13T06:04:06.435Z,89.20
2023-02-13T06:05:06.258Z,82.20
2023-02-13T06:06:06.252Z,86.70
2023-02-13T06:07:06.218Z,94.70
2023-02-13T06:08:06.233Z,92.50
2023-02-13T06:09:06.219Z,99.60
2023-02-13T06:10:06.223Z,94.70
2023-02-13T06:11:06.154Z,88.10
2023-02-13T06:12:06.186Z,94.70
2023-02-13T06:13:06.154Z,95.80
2023-02-13T06:14:06.166Z,95.20
2023-02-13T06:15:06.126Z,100.50
2023-02-13T06:16:06.198Z,92.50
2023-02-13T06:17:06.075Z,93.70
2023-02-13T06:18:06.110Z,98.70
2023-02-13T06:19:06.061Z,99.40
2023-02-13T06:20:06.058Z,104.50
2023-02-13T06:21:06.038Z,106.80
2023-02-13T06:22:06.047Z,112.80
2023-02-13T06:23:06.018Z,113.60
2023-02-13T06:24:06.067Z,118.70
2023-02-13T06:25:05.988Z,120.00
2023-02-13T06:26:05.979Z,119.00
2023-02-13T06:27:05.953Z,125.00
2023-02-13T06:28:06.031Z,119.10
2023-02-13T06:29:06.923Z,120.40
2023-02-13T06:30:05.940Z,116.10
2023-02-13T06:31:06.009Z,122.50
2023-02-13T06:32:05.975Z,125.20
2023-02-13T06:33:05.905Z,126.90
2023-02-13T06:34:05.920Z,122.70
2023-02-13T06:35:05.848Z,126.40
2023-02-13T06:36:05.848Z,127.70
2023-02-13T06:37:05.817Z,121.20
2023-02-13T06:38:05.868Z,129.60
2023-02-13T06:39:05.802Z,132.90
2023-02-13T06:40:05.804Z,123.80
2023-02-13T06:41:05.769Z,116.10
2023-02-13T06:42:05.807Z,129.10
2023-02-13T06:43:05.747Z,112.00
2023-02-13T06:44:05.784Z,121.60
2023-02-13T06:45:05.738Z,124.90
2023-02-13T06:46:05.724Z,126.20
2023-02-13T06:47:05.687Z,114.10
2023-02-13T06:48:05.718Z,121.70
2023-02-13T06:49:05.672Z,114.90
2023-02-13T06:50:05.687Z,120.60
2023-02-13T06:51:05.659Z,118.20
2023-02-13T06:52:05.638Z,117.70
2023-02-13T06:53:05.601Z,117.70
2023-02-13T06:54:05.647Z,126.40
2023-02-13T06:55:05.615Z,125.10
2023-02-13T06:56:05.596Z,120.20
2023-02-13T06:57:05.549Z,121.60
2023-02-13T06:58:05.558Z,131.20
2023-02-13T06:59:05.526Z,126.00
2023-02-13T07:00:05.639Z,132.50
2023-02-13T07:01:05.568Z,137.40
2023-02-13T07:02:05.579Z,139.00
2023-02-13T07:03:05.628Z,130.50
2023-02-13T07:04:05.516Z,147.30
2023-02-13T07:05:05.492Z,143.00
2023-02-13T07:06:05.458Z,144.60
2023-02-13T07:07:05.475Z,152.70
2023-02-13T07:08:05.405Z,141.10
2023-02-13T07:09:05.415Z,158.20
2023-02-13T07:10:05.386Z,150.70
2023-02-13T07:11:05.426Z,143.50
2023-02-13T07:12:05.360Z,143.30
2023-02-13T07:13:06.408Z,136.60
2023-02-13T07:14:05.342Z,133.20
2023-02-13T07:15:05.365Z,133.20
2023-02-13T07:16:05.393Z,134.40
2023-02-13T07:17:05.316Z,144.50
2023-02-13T07:18:05.315Z,139.80
2023-02-13T07:19:05.295Z,131.10
2023-02-13T07:20:05.310Z,132.70
2023-02-13T07:21:05.320Z,128.20
2023-02-13T07:22:05.249Z,134.40
2023-02-13T07:23:05.289Z,130.90
2023-02-13T07:24:07.150Z,129.70
2023-02-13T07:25:05.219Z,114.00
2023-02-13T07:26:05.211Z,119.30
2023-02-13T07:27:05.218Z,124.90
2023-02-13T07:28:05.214Z,126.90
2023-02-13T07:29:11.170Z,134.40
2023-02-13T07:30:05.148Z,129.70
2023-02-13T07:31:05.225Z,126.50
2023-02-13T07:32:05.154Z,118.00
2023-02-13T07:33:05.137Z,131.60
2023-02-13T07:34:05.088Z,125.00
2023-02-13T07:35:05.100Z,121.00
2023-02-13T07:36:05.081Z,121.50
2023-02-13T07:37:05.063Z,110.40
2023-02-13T07:38:05.039Z,120.80
2023-02-13T07:39:05.052Z,117.90
2023-02-13T07:40:06.499Z,115.30
2023-02-13T07:41:05.002Z,84.30
2023-02-13T07:42:04.989Z,108.00
2023-02-13T07:43:05.006Z,100.30
2023-02-13T07:44:04.941Z,105.00
2023-02-13T07:45:04.958Z,97.20
2023-02-13T07:46:04.939Z,89.50
2023-02-13T07:47:05.001Z,99.10
2023-02-13T07:48:04.903Z,101.70
2023-02-13T07:49:04.945Z,99.50
2023-02-13T07:50:04.892Z,101.60
2023-02-13T07:51:04.896Z,93.20
2023-02-13T07:52:04.977Z,91.10
2023-02-13T07:53:04.974Z,96.20
2023-02-13T07:54:04.852Z,95.80
2023-02-13T07:55:04.835Z,94.40
2023-02-13T07:56:04.851Z,90.90
2023-02-13T07:57:04.808Z,87.50
2023-02-13T07:58:04.784Z,84.80
2023-02-13T07:59:06.874Z,81.00
2023-02-13T08:00:04.744Z,90.00
2023-02-13T08:01:04.770Z,85.30
2023-02-13T08:02:04.765Z,87.20
2023-02-13T08:03:04.722Z,86.30
2023-02-13T08:04:04.813Z,82.90
2023-02-13T08:05:04.694Z,85.20
2023-02-13T08:06:04.657Z,85.10
2023-02-13T08:07:04.671Z,82.60
2023-02-13T08:08:04.633Z,77.40
2023-02-13T08:09:04.673Z,82.00
2023-02-13T08:10:04.619Z,76.60
2023-02-13T08:11:04.643Z,78.00
2023-02-13T08:12:04.616Z,79.10
2023-02-13T08:13:04.597Z,72.20
2023-02-13T08:14:04.551Z,66.10
2023-02-13T08:15:04.580Z,68.10
2023-02-13T08:16:04.587Z,77.10
2023-02-13T08:17:04.544Z,64.10
2023-02-13T08:18:04.503Z,64.30
2023-02-13T08:19:04.501Z,63.30
2023-02-13T08:20:04.465Z,57.30
2023-02-13T08:21:04.522Z,62.40
2023-02-13T08:22:04.470Z,65.60
2023-02-13T08:23:04.524Z,64.60
2023-02-13T08:24:04.421Z,62.90
2023-02-13T08:25:04.438Z,63.50
2023-02-13T08:26:04.412Z,62.80
2023-02-13T08:27:04.404Z,63.80
2023-02-13T08:28:04.454Z,64.80
2023-02-13T08:29:04.388Z,63.60
2023-02-13T08:30:04.351Z,58.60
2023-02-13T08:31:04.361Z,54.40
2023-02-13T08:32:04.511Z,53.40
2023-02-13T08:33:04.372Z,57.60
2023-02-13T08:34:04.301Z,55.60
2023-02-13T08:35:04.320Z,55.10
2023-02-13T08:36:04.289Z,56.70
2023-02-13T08:37:04.276Z,50.90
2023-02-13T08:38:04.273Z,48.50
2023-02-13T08:39:04.269Z,53.90
2023-02-13T08:40:04.220Z,52.10
2023-02-13T08:41:04.236Z,50.10
2023-02-13T08:42:04.260Z,52.20
2023-02-13T08:43:04.216Z,54.10
2023-02-13T08:44:04.193Z,47.00
2023-02-13T08:45:04.166Z,49.90
2023-02-13T08:46:04.227Z,50.10
2023-02-13T08:47:04.196Z,53.60
2023-02-13T08:48:04.306Z,55.10
2023-02-13T08:49:04.127Z,55.80
2023-02-13T08:50:04.109Z,52.80
2023-02-13T08:51:04.099Z,52.60
2023-02-13T08:52:04.083Z,50.30
2023-02-13T08:53:04.083Z,54.60
2023-02-13T08:54:04.034Z,58.60
2023-02-13T08:55:04.039Z,60.70
2023-02-13T08:56:04.042Z,50.50
2023-02-13T08:57:04.014Z,51.40
2023-02-13T08:58:03.987Z,54.60
2023-02-13T08:59:04.017Z,55.70
2023-02-13T09:00:03.967Z,51.40
2023-02-13T09:01:04.002Z,48.10
2023-02-13T09:02:03.931Z,48.90
2023-02-13T09:03:04.057Z,53.30
2023-02-13T09:04:03.948Z,49.00
2023-02-13T09:05:03.915Z,50.90
2023-02-13T09:06:03.880Z,52.30
2023-02-13T09:07:03.880Z,49.20
2023-02-13T09:08:03.965Z,47.30
2023-02-13T09:09:03.882Z,52.20
2023-02-13T09:10:03.881Z,47.40
2023-02-13T09:11:03.846Z,46.70
2023-02-13T09:12:03.815Z,51.20
2023-02-13T09:13:03.811Z,51.00
2023-02-13T09:14:03.766Z,49.70
2023-02-13T09:15:03.805Z,51.00
2023-02-13T09:16:05.353Z,51.20
2023-02-13T09:17:03.787Z,51.70
2023-02-13T09:18:03.707Z,61.90
2023-02-13T09:19:03.721Z,51.70
2023-02-13T09:20:03.720Z,62.80
2023-02-13T09:21:03.699Z,74.00
2023-02-13T09:22:03.667Z,58.00
2023-02-13T09:23:03.711Z,59.60
2023-02-13T09:24:03.678Z,46.70
2023-02-13T09:25:03.678Z,46.60
2023-02-13T09:26:03.624Z,43.60
2023-02-13T09:27:03.666Z,44.20
2023-02-13T09:28:03.617Z,48.20
2023-02-13T09:29:03.617Z,47.50
2023-02-13T09:30:03.565Z,51.80
2023-02-13T09:31:03.761Z,47.50
2023-02-13T09:32:03.622Z,46.10
2023-02-13T09:33:03.539Z,43.80
2023-02-13T09:34:03.566Z,44.00
2023-02-13T09:35:03.524Z,43.80
2023-02-13T09:36:03.489Z,46.20
2023-02-13T09:37:03.520Z,50.80
2023-02-13T09:38:03.464Z,47.90
2023-02-13T09:39:03.470Z,46.50
2023-02-13T09:40:03.439Z,46.10
2023-02-13T09:41:03.439Z,43.30
2023-02-13T09:42:03.474Z,45.60
2023-02-13T09:43:03.483Z,45.90
2023-02-13T09:44:03.385Z,45.20
2023-02-13T09:45:03.461Z,45.90
2023-02-13T09:46:03.394Z,46.90
2023-02-13T09:47:03.352Z,48.40
2023-02-13T09:48:03.353Z,45.80
2023-02-13T09:49:03.343Z,44.60
2023-02-13T09:50:03.330Z,46.20
2023-02-13T09:51:03.347Z,46.70
2023-02-13T09:52:03.294Z,47.60
2023-02-13T09:53:03.346Z,48.50
2023-02-13T09:54:03.268Z,44.20
2023-02-13T09:55:03.294Z,46.70
2023-02-13T09:56:03.241Z,49.00
2023-02-13T09:57:03.248Z,46.80
2023-02-13T09:58:03.219Z,49.20
2023-02-13T09:59:03.230Z,50.00
2023-02-13T10:00:03.174Z,46.60
2023-02-13T10:01:03.290Z,50.20
2023-02-13T10:02:03.179Z,47.30
2023-02-13T10:03:03.190Z,47.10
2023-02-13T10:04:03.185Z,48.20
2023-02-13T10:05:03.210Z,48.00
2023-02-13T10:06:03.099Z,44.50
2023-02-13T10:07:03.113Z,47.20
2023-02-13T10:08:03.101Z,47.70
2023-02-13T10:09:03.069Z,49.00
2023-02-13T10:10:03.052Z,48.60
2023-02-13T10:11:03.137Z,47.50
2023-02-13T10:12:03.028Z,46.10
2023-02-13T10:13:03.049Z,48.80
2023-02-13T10:14:03.066Z,45.60
2023-02-13T10:15:02.999Z,47.50
2023-02-13T10:16:03.257Z,49.10
2023-02-13T10:17:03.025Z,48.90
2023-02-13T10:18:02.965Z,46.80
2023-02-13T10:19:02.942Z,48.40
2023-02-13T10:20:02.911Z,48.20
2023-02-13T10:21:02.911Z,44.20
2023-02-13T10:22:02.895Z,46.70
2023-02-13T10:23:02.932Z,43.00
2023-02-13T10:24:02.866Z,44.00
2023-02-13T10:25:02.867Z,47.60
2023-02-13T10:26:02.970Z,47.30
2023-02-13T10:27:02.844Z,47.90
2023-02-13T10:28:02.883Z,46.80
2023-02-13T10:29:02.819Z,44.90
2023-02-13T10:30:02.782Z,47.20
2023-02-13T10:31:02.875Z,45.30
2023-02-13T10:32:02.955Z,50.90
2023-02-13T10:33:02.781Z,45.50
2023-02-13T10:34:02.778Z,50.40
2023-02-13T10:35:02.776Z,46.90
2023-02-13T10:36:02.795Z,49.20
2023-02-13T10:37:02.726Z,48.20
2023-02-13T10:38:02.706Z,49.20
2023-02-13T10:39:02.704Z,53.10
2023-02-13T10:40:02.665Z,49.20
2023-02-13T10:41:02.703Z,45.70
2023-02-13T10:42:02.619Z,46.70
2023-02-13T10:43:02.644Z,44.60
2023-02-13T10:44:02.618Z,48.80
2023-02-13T10:45:02.632Z,48.30
2023-02-13T10:46:02.697Z,44.30
2023-02-13T10:47:02.604Z,45.50
2023-02-13T10:48:02.555Z,46.30
2023-02-13T10:49:02.564Z,46.80
2023-02-13T10:50:02.550Z,45.30
2023-02-13T10:51:02.575Z,44.00
2023-02-13T10:52:02.525Z,48.50
2023-02-13T10:53:02.510Z,46.50
2023-02-13T10:54:02.480Z,47.40
2023-02-13T10:55:03.091Z,45.80
2023-02-13T10:56:02.561Z,54.80
2023-02-13T10:57:02.455Z,48.80
2023-02-13T10:58:02.428Z,50.90
2023-02-13T10:59:02.451Z,44.90
2023-02-13T11:00:02.417Z,51.20
2023-02-13T11:01:02.433Z,45.20
2023-02-13T11:02:02.454Z,45.30
2023-02-13T11:03:02.377Z,54.40
2023-02-13T11:04:02.399Z,43.90
2023-02-13T11:05:02.356Z,48.30
2023-02-13T11:06:02.304Z,47.50
2023-02-13T11:07:02.337Z,47.40
2023-02-13T11:08:02.286Z,56.70
2023-02-13T11:09:02.305Z,55.60
2023-02-13T11:10:02.291Z,46.10
2023-02-13T11:11:02.288Z,46.70
2023-02-13T11:12:02.250Z,44.40
2023-02-13T11:13:02.275Z,43.30
2023-02-13T11:14:02.214Z,45.30
2023-02-13T11:15:02.209Z,43.50
2023-02-13T11:16:02.744Z,46.10
2023-02-13T11:17:02.223Z,47.80
2023-02-13T11:18:02.167Z,46.00
2023-02-13T11:19:02.158Z,43.50
2023-02-13T11:20:02.119Z,44.20
2023-02-13T11:21:02.156Z,44.40
2023-02-13T11:22:02.131Z,43.70
2023-02-13T11:23:02.097Z,41.40
2023-02-13T11:24:02.075Z,42.00
2023-02-13T11:25:02.053Z,45.40
2023-02-13T11:26:02.133Z,41.20
2023-02-13T11:27:02.028Z,44.50
2023-02-13T11:28:02.148Z,44.70
2023-02-13T11:29:02.034Z,40.90
2023-02-13T11:30:02.151Z,41.00
2023-02-13T11:31:02.078Z,41.10
2023-02-13T11:32:02.202Z,41.80
2023-02-13T11:33:01.979Z,43.20
2023-02-13T11:34:02.033Z,41.70
2023-02-13T11:35:01.925Z,43.10
2023-02-13T11:36:01.941Z,45.90
2023-02-13T11:37:01.898Z,44.50
2023-02-13T11:38:01.908Z,40.50
2023-02-13T11:39:01.872Z,39.40
2023-02-13T11:40:01.932Z,38.40
2023-02-13T11:41:01.838Z,37.70
2023-02-13T11:42:01.855Z,40.70
2023-02-13T11:43:01.818Z,43.50
2023-02-13T11:44:01.873Z,44.20
2023-02-13T11:45:01.803Z,46.40
2023-02-13T11:46:02.007Z,40.90
2023-02-13T11:47:01.956Z,42.10
2023-02-13T11:48:01.824Z,40.90
2023-02-13T11:49:01.775Z,41.90
2023-02-13T11:50:01.792Z,262.90
2023-02-13T11:51:01.704Z,49.00
2023-02-13T11:52:01.710Z,44.60
2023-02-13T11:53:01.692Z,41.90
2023-02-13T11:54:01.689Z,40.30
2023-02-13T11:55:04.089Z,40.60
2023-02-13T11:56:01.666Z,38.80
2023-02-13T11:57:04.457Z,40.60
2023-02-13T11:58:01.814Z,38.00
2023-02-13T11:59:01.664Z,39.60
2023-02-13T12:00:01.657Z,51.60
2023-02-13T12:01:01.569Z,65.20
2023-02-13T12:02:01.579Z,78.90
2023-02-13T12:03:01.638Z,53.30
2023-02-13T12:04:01.710Z,46.40
2023-02-13T12:05:01.563Z,41.50
2023-02-13T12:06:01.714Z,48.40
2023-02-13T12:07:01.512Z,43.60
2023-02-13T12:08:01.549Z,44.80
2023-02-13T12:09:01.472Z,39.10
2023-02-13T12:10:01.549Z,36.50
2023-02-13T12:11:01.443Z,37.30
2023-02-13T12:12:01.486Z,35.30
2023-02-13T12:13:01.434Z,35.40
2023-02-13T12:14:01.422Z,38.00
2023-02-13T12:15:01.414Z,45.00
2023-02-13T12:16:01.950Z,40.60
2023-02-13T12:17:01.488Z,42.90
2023-02-13T12:18:01.393Z,38.60
2023-02-13T12:19:01.373Z,36.40
2023-02-13T12:20:01.424Z,36.30
2023-02-13T12:21:01.410Z,35.80
2023-02-13T12:22:01.342Z,36.30
2023-02-13T12:23:01.321Z,36.90
2023-02-13T12:24:01.309Z,34.70
2023-02-13T12:25:01.288Z,34.70
2023-02-13T12:26:01.730Z,39.60
2023-02-13T12:27:01.309Z,33.50
2023-02-13T12:28:01.316Z,36.40
2023-02-13T12:29:01.245Z,36.40
2023-02-13T12:30:01.251Z,36.30
2023-02-13T12:31:01.619Z,35.90
2023-02-13T12:32:01.264Z,37.30
2023-02-13T12:33:01.168Z,34.80
2023-02-13T12:34:01.185Z,37.20
2023-02-13T12:35:01.123Z,37.50
2023-02-13T12:36:01.156Z,33.80
2023-02-13T12:37:01.121Z,40.30
2023-02-13T12:38:01.128Z,35.50
2023-02-13T12:39:01.227Z,33.90
2023-02-13T12:40:01.089Z,34.90
2023-02-13T12:41:01.430Z,35.50
2023-02-13T12:42:01.075Z,34.00
2023-02-13T12:43:01.083Z,33.40
2023-02-13T12:44:01.046Z,35.70
2023-02-13T12:45:00.998Z,35.30
2023-02-13T12:46:01.151Z,35.70
2023-02-13T12:47:00.969Z,31.50
2023-02-13T12:48:00.973Z,33.70
2023-02-13T12:49:00.975Z,36.10